LFRB/BES METAR and TAF weather

Enter ICAO airport designator
Station Type Date Time Source
LFRB METAR 2021/09/24 03:30 UTC NOAA

LFRB 240330Z AUTO 22005KT 9999 4800 VV/// 15/15 Q1020 TEMPO 0700 FG


Station Type Date Time Source
LFRB Decoded METAR 2021/09/24 03:30 UTC NOAA

Brest, France (LFRB) 48-27N 004-25W 103M
Sep 23, 2021 - 11:30 PM EDT / 2021.09.24 0330 UTC
Wind: from the SW (220 degrees) at 6 MPH (5 KT):0
Visibility: greater than 7 mile(s):0
Sky conditions: obscured
Temperature: 59 F (15 C)
Dew Point: 59 F (15 C)
Relative Humidity: 100%
Pressure (altimeter): 30.12 in. Hg (1020 hPa)
ob: LFRB 240330Z AUTO 22005KT 9999 4800 VV/// 15/15 Q1020 TEMPO 0700 FG
cycle: 3

Station Type Date Time Source
LFRB TAF 2021/09/24 02:29 UTC NOAA

TAF
AMD LFRB 240224Z 2402/2506 VRB05KT 9999 BKN005
TEMPO 2402/2407 0700 FG VV///
BECMG 2407/2410 BKN020
BECMG 2418/2421 2000 BR PROB40
TEMPO 2421/2506 0500 FG VV///

Example: see airport list